Terminal Aerodrome Forecast
Issued by NWS

Home | Current Version | Previous Version | Text Only | Print | Product List | Glossary On
Versions: 1 2 3 4 5 6 7 8 9 10 11 12 13 14 15 16 17
000
FTUS45 KVEF 311700
TAFBIH
TAF
KBIH 311736Z 3118/0118 VRB05KT P6SM SCT100
     FM312000 16008KT P6SM SCT100 SCT250
     FM010300 34006KT P6SM SCT250=

USA.gov is the U.S. government's official web portal to all federal, state and local government web resources and services.